Time;durP1;ratioP1;P1;durP2;ratioP2;P2;SDS_P1;SDS_P2;PMS_P1;PMS_P2;Temp;Humidity;BMP_temperature;BMP_pressure;BME280_temperature;BME280_humidity;BME280_pressure;Samples;Min_cycle;Max_cycle;Signal;HPM_P1;HPM_P2
2023/09/12 00:00:33;;;;;;;;;;;23.80;93.80;;;;;;5073358;28;19912;-59
2023/09/12 00:02:59;;;;;;;;;;;23.80;93.80;;;;;;5073535;28;19912;-58
2023/09/12 00:05:24;;;;;;;;;;;23.80;93.80;;;;;;5055993;28;19919;-59
2023/09/12 00:07:51;;;;;;;;;;;23.80;93.80;;;;;;5039260;28;19913;-59
2023/09/12 00:10:17;;;;;;;;;;;23.80;93.80;;;;;;5055849;28;20370;-59
2023/09/12 00:12:42;;;;;;;;;;;23.80;94.00;;;;;;5073567;28;19913;-59
2023/09/12 00:15:08;;;;;;;;;;;23.80;93.80;;;;;;5073504;28;19909;-59
2023/09/12 00:17:33;;;;;;;;;;;23.80;93.80;;;;;;5073460;28;20407;-58
2023/09/12 00:19:59;;;;;;;;;;;23.80;93.80;;;;;;5073475;28;20355;-57
2023/09/12 00:22:24;;;;;;;;;;;23.80;93.80;;;;;;5073343;28;19912;-59
2023/09/12 00:24:50;;;;;;;;;;;23.80;93.70;;;;;;5074001;28;19917;-59
2023/09/12 00:27:15;;;;;;;;;;;23.80;93.70;;;;;;5073670;28;19955;-59
2023/09/12 00:29:41;;;;;;;;;;;23.80;93.70;;;;;;5073596;28;19915;-59
2023/09/12 00:32:06;;;;;;;;;;;23.80;93.70;;;;;;5073362;28;19909;-59
2023/09/12 00:34:32;;;;;;;;;;;23.80;93.70;;;;;;5073568;28;19999;-59
2023/09/12 00:36:57;;;;;;;;;;;23.80;93.70;;;;;;5055466;28;20263;-57
2023/09/12 00:39:22;;;;;;;;;;;23.80;93.70;;;;;;5073242;28;19995;-58
2023/09/12 00:41:48;;;;;;;;;;;23.80;93.70;;;;;;5073267;28;20300;-59
2023/09/12 00:44:13;;;;;;;;;;;23.80;93.70;;;;;;5074304;28;19939;-59
2023/09/12 00:46:39;;;;;;;;;;;23.80;93.70;;;;;;5076799;28;19919;-59
2023/09/12 00:49:06;;;;;;;;;;;23.80;93.70;;;;;;5059229;28;20318;-59
2023/09/12 00:51:32;;;;;;;;;;;23.80;93.70;;;;;;5077153;28;19960;-58
2023/09/12 00:53:57;;;;;;;;;;;23.80;93.70;;;;;;5077121;28;19932;-58
2023/09/12 00:56:23;;;;;;;;;;;23.80;93.70;;;;;;5077125;28;19913;-59
2023/09/12 00:58:51;;;;;;;;;;;23.80;93.70;;;;;;5076786;28;19948;-59
2023/09/12 01:01:17;;;;;;;;;;;23.80;93.70;;;;;;5076966;28;19909;-59
2023/09/12 01:03:43;;;;;;;;;;;23.80;93.60;;;;;;5076555;28;20378;-59
2023/09/12 01:06:08;;;;;;;;;;;23.80;93.90;;;;;;5076598;28;19912;-59
2023/09/12 01:08:34;;;;;;;;;;;23.80;93.60;;;;;;5076854;28;19913;-59
2023/09/12 01:11:00;;;;;;;;;;;23.80;93.60;;;;;;5076845;28;19908;-58
2023/09/12 01:13:26;;;;;;;;;;;23.80;93.60;;;;;;5058782;28;19959;-59
2023/09/12 01:15:51;;;;;;;;;;;23.80;93.60;;;;;;5076671;28;19917;-59
2023/09/12 01:18:17;;;;;;;;;;;23.80;93.60;;;;;;5076706;28;19909;-59
2023/09/12 01:20:53;;;;;;;;;;;23.80;93.60;;;;;;5076565;28;20309;-59
2023/09/12 01:23:28;;;;;;;;;;;23.80;93.60;;;;;;5076710;28;20011;-59
2023/09/12 01:26:04;;;;;;;;;;;23.80;93.60;;;;;;5058434;28;19917;-60
2023/09/12 01:28:34;;;;;;;;;;;23.80;93.60;;;;;;5076780;28;20351;-59
2023/09/12 01:31:00;;;;;;;;;;;23.80;93.60;;;;;;5076481;28;19908;-59
2023/09/12 01:33:26;;;;;;;;;;;23.80;93.60;;;;;;5076187;28;19908;-59
2023/09/12 01:35:52;;;;;;;;;;;23.80;93.60;;;;;;5076302;28;19915;-59
2023/09/12 01:38:18;;;;;;;;;;;23.80;93.60;;;;;;5076054;28;19984;-59
2023/09/12 01:40:44;;;;;;;;;;;23.80;93.60;;;;;;5076192;28;19908;-59
2023/09/12 01:43:10;;;;;;;;;;;23.80;93.60;;;;;;5075896;28;20356;-59
2023/09/12 01:45:36;;;;;;;;;;;23.80;93.60;;;;;;5076524;28;19913;-59
2023/09/12 01:48:03;;;;;;;;;;;23.80;93.60;;;;;;5076048;28;19920;-58
2023/09/12 01:50:30;;;;;;;;;;;23.80;93.60;;;;;;5075944;28;19912;-58
2023/09/12 01:52:56;;;;;;;;;;;23.80;93.60;;;;;;5075864;28;19995;-59
2023/09/12 01:55:22;;;;;;;;;;;23.80;93.50;;;;;;5075652;28;19912;-59
2023/09/12 01:57:47;;;;;;;;;;;23.80;93.50;;;;;;5075956;28;19916;-59
2023/09/12 02:00:13;;;;;;;;;;;23.80;93.50;;;;;;5075946;28;20310;-59
2023/09/12 02:02:38;;;;;;;;;;;23.80;93.50;;;;;;5075520;28;19913;-59
2023/09/12 02:05:07;;;;;;;;;;;23.80;93.50;;;;;;5057674;28;20401;-59
2023/09/12 02:07:34;;;;;;;;;;;23.80;93.50;;;;;;5075875;28;19962;-59
2023/09/12 02:10:00;;;;;;;;;;;23.80;93.50;;;;;;5075672;28;19931;-59
2023/09/12 02:12:25;;;;;;;;;;;23.80;93.50;;;;;;5075543;28;20351;-59
2023/09/12 02:14:51;;;;;;;;;;;23.80;93.50;;;;;;5075615;28;19909;-59
2023/09/12 02:17:16;;;;;;;;;;;23.80;93.50;;;;;;5075592;28;19952;-59
2023/09/12 02:19:42;;;;;;;;;;;23.80;93.50;;;;;;5075286;28;19915;-59
2023/09/12 02:22:07;;;;;;;;;;;23.80;93.50;;;;;;5075423;28;19909;-59
2023/09/12 02:24:35;;;;;;;;;;;23.80;93.50;;;;;;5075470;28;19947;-59
2023/09/12 02:27:01;;;;;;;;;;;23.80;93.50;;;;;;5057520;28;19912;-58
2023/09/12 02:29:26;;;;;;;;;;;23.80;93.50;;;;;;5075116;28;19958;-59
2023/09/12 02:31:52;;;;;;;;;;;23.80;93.50;;;;;;5057473;28;19970;-59
2023/09/12 02:34:17;;;;;;;;;;;23.80;93.50;;;;;;5075048;28;19934;-59
2023/09/12 02:36:43;;;;;;;;;;;23.80;93.50;;;;;;5075219;28;19912;-59
2023/09/12 02:39:08;;;;;;;;;;;23.80;93.50;;;;;;5074852;28;19953;-58
2023/09/12 02:41:34;;;;;;;;;;;23.80;93.50;;;;;;5075187;28;20401;-58
2023/09/12 02:43:59;;;;;;;;;;;23.80;93.50;;;;;;5074968;28;19912;-57
2023/09/12 02:46:25;;;;;;;;;;;23.80;93.50;;;;;;5075044;28;20058;-57
2023/09/12 02:48:50;;;;;;;;;;;23.80;93.50;;;;;;5074737;28;19909;-59
2023/09/12 02:51:16;;;;;;;;;;;23.80;93.50;;;;;;5075013;28;20438;-59
2023/09/12 02:53:41;;;;;;;;;;;23.80;93.50;;;;;;5074681;28;19908;-59
2023/09/12 02:56:06;;;;;;;;;;;23.80;93.50;;;;;;5074838;28;19931;-59
2023/09/12 02:58:32;;;;;;;;;;;23.80;93.50;;;;;;5074594;28;19931;-58
2023/09/12 03:00:58;;;;;;;;;;;23.80;93.50;;;;;;5074521;28;19936;-59
2023/09/12 03:03:24;;;;;;;;;;;23.80;93.50;;;;;;5074384;28;19924;-59
2023/09/12 03:05:56;;;;;;;;;;;23.80;93.50;;;;;;5074331;28;19923;-59
2023/09/12 03:08:22;;;;;;;;;;;23.80;93.50;;;;;;5074144;28;19916;-59
2023/09/12 03:10:52;;;;;;;;;;;23.80;93.50;;;;;;5074254;28;19909;-59
2023/09/12 03:13:18;;;;;;;;;;;23.80;93.50;;;;;;5074278;28;20279;-59
2023/09/12 03:15:43;;;;;;;;;;;23.80;93.50;;;;;;5074551;28;19912;-59
2023/09/12 03:18:09;;;;;;;;;;;23.80;93.50;;;;;;5074792;28;19915;-59
2023/09/12 03:20:37;;;;;;;;;;;23.80;93.50;;;;;;5074161;28;19909;-59
2023/09/12 03:23:03;;;;;;;;;;;23.80;93.50;;;;;;5074101;28;19958;-58
2023/09/12 03:25:28;;;;;;;;;;;23.80;93.50;;;;;;5074120;28;20290;-59
2023/09/12 03:27:53;;;;;;;;;;;23.80;93.50;;;;;;5073857;28;19912;-59
2023/09/12 03:30:19;;;;;;;;;;;23.80;93.50;;;;;;5074252;28;19909;-59
2023/09/12 03:32:45;;;;;;;;;;;23.80;93.50;;;;;;5074473;28;20245;-60
2023/09/12 03:35:10;;;;;;;;;;;23.80;93.50;;;;;;5056093;28;19958;-59
2023/09/12 03:37:40;;;;;;;;;;;23.80;93.40;;;;;;5074097;28;19908;-59
2023/09/12 03:40:06;;;;;;;;;;;23.80;93.50;;;;;;5074026;28;19909;-59
2023/09/12 03:42:32;;;;;;;;;;;23.80;93.40;;;;;;5073757;28;19963;-58
2023/09/12 03:44:57;;;;;;;;;;;23.80;93.40;;;;;;5074019;28;19912;-60
2023/09/12 03:47:23;;;;;;;;;;;23.80;93.40;;;;;;5073743;28;19921;-59
2023/09/12 03:49:48;;;;;;;;;;;23.80;93.40;;;;;;5073982;28;19909;-59
2023/09/12 03:52:14;;;;;;;;;;;23.80;93.40;;;;;;5073908;28;19920;-59
2023/09/12 03:54:39;;;;;;;;;;;23.80;93.70;;;;;;5073657;28;19909;-59
2023/09/12 03:57:05;;;;;;;;;;;23.80;93.40;;;;;;5073730;28;19915;-59
2023/09/12 03:59:30;;;;;;;;;;;23.80;93.40;;;;;;5074271;28;19915;-59
2023/09/12 04:01:55;;;;;;;;;;;23.80;93.50;;;;;;5074179;28;20363;-60
2023/09/12 04:04:21;;;;;;;;;;;23.80;93.50;;;;;;5073811;28;19916;-59
2023/09/12 04:06:46;;;;;;;;;;;23.80;93.50;;;;;;5073803;28;19951;-59
2023/09/12 04:09:12;;;;;;;;;;;23.70;93.40;;;;;;5055849;28;19915;-59
2023/09/12 04:11:37;;;;;;;;;;;23.80;93.40;;;;;;5073848;28;19909;-58
2023/09/12 04:14:03;;;;;;;;;;;23.80;93.40;;;;;;5073899;28;19938;-59
2023/09/12 04:16:28;;;;;;;;;;;23.80;93.50;;;;;;5073789;28;20375;-59
2023/09/12 04:18:54;;;;;;;;;;;23.80;93.40;;;;;;5075885;28;19915;-59
2023/09/12 04:21:19;;;;;;;;;;;23.80;93.40;;;;;;5077452;28;20378;-59
2023/09/12 04:23:45;;;;;;;;;;;23.80;93.40;;;;;;5077361;28;19958;-59
2023/09/12 04:26:10;;;;;;;;;;;23.70;93.40;;;;;;5077519;28;19912;-59
2023/09/12 04:28:36;;;;;;;;;;;23.80;93.40;;;;;;5077651;28;19908;-59
2023/09/12 04:31:03;;;;;;;;;;;23.80;93.40;;;;;;5077463;28;19909;-59
2023/09/12 04:33:28;;;;;;;;;;;23.70;93.40;;;;;;5077164;28;20382;-59
2023/09/12 04:35:54;;;;;;;;;;;23.80;93.50;;;;;;5076959;28;19913;-59
2023/09/12 04:38:20;;;;;;;;;;;23.80;93.40;;;;;;5077164;28;19916;-59
2023/09/12 04:41:06;;;;;;;;;;;23.80;93.40;;;;;;5077245;28;20310;-59
2023/09/12 04:43:32;;;;;;;;;;;23.70;93.40;;;;;;5058729;28;20024;-59
2023/09/12 04:45:57;;;;;;;;;;;23.80;93.50;;;;;;5076865;28;20003;-59
2023/09/12 04:48:23;;;;;;;;;;;23.80;93.50;;;;;;5077137;28;19924;-60
2023/09/12 04:50:48;;;;;;;;;;;23.70;93.40;;;;;;5076900;28;19962;-59
2023/09/12 04:53:14;;;;;;;;;;;23.80;93.50;;;;;;5076723;28;19913;-59
2023/09/12 04:55:39;;;;;;;;;;;23.70;93.50;;;;;;5076972;28;20461;-59
2023/09/12 04:58:05;;;;;;;;;;;23.80;93.50;;;;;;5076959;28;19908;-59
2023/09/12 05:00:32;;;;;;;;;;;23.80;93.50;;;;;;5075912;28;21472;-58
2023/09/12 05:02:58;;;;;;;;;;;23.80;93.50;;;;;;5076550;28;19955;-60
2023/09/12 05:05:23;;;;;;;;;;;23.70;93.50;;;;;;5076859;28;19916;-59
2023/09/12 05:07:51;;;;;;;;;;;23.70;93.50;;;;;;5076839;28;19930;-59
2023/09/12 05:10:16;;;;;;;;;;;23.80;93.50;;;;;;5076575;28;19935;-59
2023/09/12 05:12:42;;;;;;;;;;;23.80;93.50;;;;;;5076395;28;19951;-59
2023/09/12 05:15:07;;;;;;;;;;;23.80;93.50;;;;;;5076884;28;19908;-59
2023/09/12 05:17:33;;;;;;;;;;;23.70;93.50;;;;;;5076341;28;20343;-59
2023/09/12 05:19:58;;;;;;;;;;;23.80;93.50;;;;;;5076929;28;19909;-59
2023/09/12 05:22:24;;;;;;;;;;;23.70;93.50;;;;;;5076457;28;19916;-59
2023/09/12 05:24:49;;;;;;;;;;;23.80;93.50;;;;;;5076149;28;19969;-59
2023/09/12 05:27:15;;;;;;;;;;;23.80;93.50;;;;;;5076264;28;19909;-59
2023/09/12 05:29:40;;;;;;;;;;;23.70;93.50;;;;;;5075730;28;20286;-59
2023/09/12 05:32:06;;;;;;;;;;;23.80;93.50;;;;;;5076237;28;19909;-59
2023/09/12 05:34:31;;;;;;;;;;;23.80;93.50;;;;;;5057372;28;19913;-59
2023/09/12 05:36:57;;;;;;;;;;;23.80;93.50;;;;;;5063568;28;20355;-59
2023/09/12 05:39:22;;;;;;;;;;;23.70;93.50;;;;;;5074938;28;19909;-59
2023/09/12 05:41:48;;;;;;;;;;;23.70;93.50;;;;;;5037770;28;20263;-59
2023/09/12 05:44:17;;;;;;;;;;;23.80;93.50;;;;;;5040871;28;19984;-59
2023/09/12 05:46:44;;;;;;;;;;;23.80;93.50;;;;;;5035889;28;19913;-59
2023/09/12 05:49:10;;;;;;;;;;;23.80;93.50;;;;;;5035946;28;19913;-59
2023/09/12 05:51:35;;;;;;;;;;;23.70;93.50;;;;;;5036849;28;19910;-58
2023/09/12 05:54:01;;;;;;;;;;;23.80;93.50;;;;;;5055570;28;19908;-58
2023/09/12 05:56:27;;;;;;;;;;;23.80;93.50;;;;;;5055919;28;19915;-59
2023/09/12 05:58:52;;;;;;;;;;;23.80;93.50;;;;;;5055528;28;20348;-59
2023/09/12 06:01:18;;;;;;;;;;;23.80;93.50;;;;;;5038105;28;19940;-59
2023/09/12 06:03:43;;;;;;;;;;;23.80;93.50;;;;;;5055338;28;19924;-59
2023/09/12 06:06:09;;;;;;;;;;;23.70;93.50;;;;;;5058378;28;19931;-59
2023/09/12 06:08:34;;;;;;;;;;;23.80;93.50;;;;;;5054749;28;19986;-59
2023/09/12 06:11:00;;;;;;;;;;;23.80;93.50;;;;;;5064354;28;19913;-59
2023/09/12 06:13:25;;;;;;;;;;;23.70;93.30;;;;;;5075168;28;20263;-59
2023/09/12 06:15:51;;;;;;;;;;;23.70;92.00;;;;;;5074042;28;19919;-59
2023/09/12 06:18:18;;;;;;;;;;;23.70;91.40;;;;;;5043640;28;20347;-59
2023/09/12 06:20:43;;;;;;;;;;;23.70;91.70;;;;;;5060217;28;19982;-59
2023/09/12 06:23:10;;;;;;;;;;;23.70;92.20;;;;;;5063210;28;20364;-59
2023/09/12 06:25:35;;;;;;;;;;;23.70;92.50;;;;;;5066167;28;20042;-58
2023/09/12 06:28:01;;;;;;;;;;;23.70;92.60;;;;;;5075043;28;19947;-59
2023/09/12 06:30:26;;;;;;;;;;;23.70;92.70;;;;;;5075062;28;19985;-59
2023/09/12 06:32:52;;;;;;;;;;;23.70;92.80;;;;;;5068847;28;19916;-59
2023/09/12 06:35:17;;;;;;;;;;;23.70;92.90;;;;;;5054859;28;20000;-59
2023/09/12 06:37:43;;;;;;;;;;;23.70;93.00;;;;;;5053801;28;19916;-59
2023/09/12 06:40:09;;;;;;;;;;;23.70;93.00;;;;;;5052829;28;19937;-59
2023/09/12 06:42:34;;;;;;;;;;;23.70;93.10;;;;;;5059856;28;20374;-59
2023/09/12 06:45:00;;;;;;;;;;;23.70;93.10;;;;;;5074533;28;19912;-59
2023/09/12 06:47:25;;;;;;;;;;;23.70;93.20;;;;;;5072437;28;20264;-59
2023/09/12 06:49:51;;;;;;;;;;;23.70;93.20;;;;;;5073906;28;19912;-59
2023/09/12 06:52:16;;;;;;;;;;;23.70;93.30;;;;;;5067864;28;20291;-59
2023/09/12 06:54:42;;;;;;;;;;;23.70;93.30;;;;;;5054550;28;19958;-59
2023/09/12 06:57:07;;;;;;;;;;;23.70;93.40;;;;;;5054594;28;20257;-59
2023/09/12 06:59:33;;;;;;;;;;;23.70;93.40;;;;;;5054563;28;19909;-59
2023/09/12 07:01:58;;;;;;;;;;;23.70;93.50;;;;;;5064302;28;20398;-59
2023/09/12 07:04:24;;;;;;;;;;;23.70;93.50;;;;;;5053487;28;20019;-58
2023/09/12 07:06:51;;;;;;;;;;;23.70;93.60;;;;;;5053315;28;19966;-59
2023/09/12 07:09:16;;;;;;;;;;;23.70;93.60;;;;;;5052909;28;20352;-59
2023/09/12 07:11:42;;;;;;;;;;;23.70;93.50;;;;;;5054283;28;19919;-59
2023/09/12 07:14:08;;;;;;;;;;;23.70;93.60;;;;;;5071125;28;19913;-59
2023/09/12 07:16:35;;;;;;;;;;;23.70;93.60;;;;;;5069851;28;19912;-56
2023/09/12 07:19:01;;;;;;;;;;;23.70;93.70;;;;;;5053910;28;19979;-59
2023/09/12 07:21:26;;;;;;;;;;;23.70;93.70;;;;;;5053027;28;19916;-59
2023/09/12 07:23:52;;;;;;;;;;;23.70;93.80;;;;;;5053592;28;19939;-59
2023/09/12 07:26:17;;;;;;;;;;;23.70;93.70;;;;;;5051902;28;19920;-59
2023/09/12 07:28:43;;;;;;;;;;;23.70;92.60;;;;;;5060368;28;19916;-59
2023/09/12 07:31:08;;;;;;;;;;;23.60;91.70;;;;;;5042755;28;19917;-59
2023/09/12 07:33:34;;;;;;;;;;;23.70;92.20;;;;;;5034165;28;19936;-59
2023/09/12 07:36:00;;;;;;;;;;;23.70;92.40;;;;;;5034107;28;19954;-59
2023/09/12 07:38:26;;;;;;;;;;;23.60;92.60;;;;;;5034166;28;19917;-59
2023/09/12 07:40:52;;;;;;;;;;;23.70;92.70;;;;;;5033857;28;20443;-59
2023/09/12 07:43:17;;;;;;;;;;;23.60;92.70;;;;;;5034020;28;20032;-59
2023/09/12 07:45:43;;;;;;;;;;;23.70;92.80;;;;;;5049356;28;20371;-59
2023/09/12 07:48:10;;;;;;;;;;;23.70;92.90;;;;;;5034158;28;19953;-59
2023/09/12 07:50:38;;;;;;;;;;;23.70;93.00;;;;;;5033734;28;20327;-60
2023/09/12 07:53:04;;;;;;;;;;;23.70;93.10;;;;;;5048955;28;19913;-59
2023/09/12 07:55:34;;;;;;;;;;;23.70;93.10;;;;;;5033823;28;19909;-59
2023/09/12 07:57:59;;;;;;;;;;;23.60;93.10;;;;;;5033672;28;19909;-60
2023/09/12 08:00:25;;;;;;;;;;;23.70;93.10;;;;;;5033722;28;19932;-59
2023/09/12 08:02:50;;;;;;;;;;;23.70;93.10;;;;;;5033585;28;20356;-60
2023/09/12 08:05:16;;;;;;;;;;;23.60;93.10;;;;;;5048947;28;19975;-59
2023/09/12 08:07:41;;;;;;;;;;;23.60;93.10;;;;;;5033508;28;19917;-60
2023/09/12 08:10:07;;;;;;;;;;;23.70;93.20;;;;;;5033951;28;20353;-59
2023/09/12 08:12:33;;;;;;;;;;;23.70;93.20;;;;;;5033905;28;20276;-59
2023/09/12 08:14:59;;;;;;;;;;;23.60;93.20;;;;;;5034019;28;19999;-60
2023/09/12 08:17:25;;;;;;;;;;;23.70;93.20;;;;;;5033432;28;20362;-59
2023/09/12 08:19:51;;;;;;;;;;;23.60;93.20;;;;;;5033411;28;20011;-60
2023/09/12 08:22:17;;;;;;;;;;;23.70;93.20;;;;;;5033509;28;19974;-59
2023/09/12 08:24:42;;;;;;;;;;;23.60;93.20;;;;;;5033263;28;19920;-59
2023/09/12 08:27:08;;;;;;;;;;;23.60;93.20;;;;;;5033383;28;19909;-58
2023/09/12 08:29:34;;;;;;;;;;;23.70;93.30;;;;;;5033216;28;20279;-59
2023/09/12 08:32:00;;;;;;;;;;;23.70;93.30;;;;;;5033323;28;19913;-59
2023/09/12 08:34:25;;;;;;;;;;;23.60;93.20;;;;;;5033382;28;19915;-59
2023/09/12 08:36:51;;;;;;;;;;;23.70;93.30;;;;;;5033586;28;20008;-60
2023/09/12 08:39:22;;;;;;;;;;;23.70;93.30;;;;;;5033561;28;19909;-60
2023/09/12 08:41:48;;;;;;;;;;;23.70;93.30;;;;;;5033615;28;19959;-59
2023/09/12 08:44:13;;;;;;;;;;;23.60;93.30;;;;;;5032969;28;19949;-60
2023/09/12 08:46:41;;;;;;;;;;;23.60;93.30;;;;;;5033540;28;20004;-59
2023/09/12 08:49:07;;;;;;;;;;;23.60;93.30;;;;;;5033463;28;20011;-60
2023/09/12 08:51:33;;;;;;;;;;;23.60;93.30;;;;;;5033917;28;19956;-60
2023/09/12 08:53:59;;;;;;;;;;;23.70;93.40;;;;;;5033411;28;19909;-60
2023/09/12 08:56:25;;;;;;;;;;;23.60;93.30;;;;;;5033303;28;19910;-60
2023/09/12 08:58:50;;;;;;;;;;;23.70;93.30;;;;;;5033453;28;19909;-60
2023/09/12 09:01:18;;;;;;;;;;;23.70;93.40;;;;;;5033425;28;19916;-60
2023/09/12 09:03:43;;;;;;;;;;;23.60;93.30;;;;;;5033218;28;19917;-60
2023/09/12 09:06:09;;;;;;;;;;;23.70;93.40;;;;;;5035878;28;20285;-60
2023/09/12 09:08:35;;;;;;;;;;;23.60;93.30;;;;;;5036894;28;19916;-60
2023/09/12 09:11:05;;;;;;;;;;;23.70;93.40;;;;;;5036950;28;20031;-60
2023/09/12 09:13:31;;;;;;;;;;;23.70;93.40;;;;;;5036818;28;19913;-60
2023/09/12 09:16:10;;;;;;;;;;;23.70;93.40;;;;;;5036719;28;19909;-60
2023/09/12 09:18:55;;;;;;;;;;;23.70;93.70;;;;;;5036608;28;20260;-60
2023/09/12 09:21:25;;;;;;;;;;;23.60;93.40;;;;;;5036482;28;19909;-60
2023/09/12 09:23:51;;;;;;;;;;;23.70;93.40;;;;;;5036376;28;19967;-60
2023/09/12 09:26:17;;;;;;;;;;;23.70;93.40;;;;;;5036211;28;20383;-60
2023/09/12 09:28:42;;;;;;;;;;;23.70;93.40;;;;;;5036258;28;19956;-59
2023/09/12 09:31:14;;;;;;;;;;;23.60;93.40;;;;;;5036628;28;19913;-58
2023/09/12 09:33:40;;;;;;;;;;;23.70;93.40;;;;;;5036502;28;19914;-59
2023/09/12 09:36:06;;;;;;;;;;;23.60;93.40;;;;;;5036316;28;19910;-60
2023/09/12 09:38:34;;;;;;;;;;;23.70;93.40;;;;;;5035977;28;19991;-60
2023/09/12 09:40:59;;;;;;;;;;;23.70;93.40;;;;;;5036063;28;19971;-60
2023/09/12 09:43:25;;;;;;;;;;;23.70;93.50;;;;;;5036067;28;20356;-60
2023/09/12 09:45:50;;;;;;;;;;;23.60;93.40;;;;;;5053104;28;19943;-60
2023/09/12 09:48:19;;;;;;;;;;;23.60;93.40;;;;;;5045232;28;19921;-60
2023/09/12 09:50:45;;;;;;;;;;;23.70;93.40;;;;;;5035723;28;19909;-60
2023/09/12 09:53:10;;;;;;;;;;;23.60;93.40;;;;;;5047775;28;19912;-57
2023/09/12 09:55:36;;;;;;;;;;;23.60;93.40;;;;;;5058397;28;19912;-59
2023/09/12 09:58:02;;;;;;;;;;;23.60;93.40;;;;;;5054788;28;19913;-60
2023/09/12 10:00:28;;;;;;;;;;;23.60;93.40;;;;;;5069660;28;19920;-60
2023/09/12 10:02:55;;;;;;;;;;;23.60;93.40;;;;;;5058790;28;19921;-60
2023/09/12 10:05:21;;;;;;;;;;;23.60;93.40;;;;;;5054536;28;20046;-60
2023/09/12 10:07:49;;;;;;;;;;;23.60;93.40;;;;;;5037636;28;20296;-60
2023/09/12 10:10:16;;;;;;;;;;;23.60;93.60;;;;;;5060900;28;19939;-59
2023/09/12 10:12:45;;;;;;;;;;;23.70;93.40;;;;;;5052751;28;20278;-60
2023/09/12 10:15:11;;;;;;;;;;;23.70;93.40;;;;;;5047196;28;19913;-59
2023/09/12 10:17:39;;;;;;;;;;;23.60;93.40;;;;;;5066539;28;19947;-60
2023/09/12 10:20:09;;;;;;;;;;;23.60;93.40;;;;;;5063565;28;19916;-61
2023/09/12 10:22:40;;;;;;;;;;;23.60;93.40;;;;;;5065058;28;19928;-59
2023/09/12 10:25:07;;;;;;;;;;;23.60;93.40;;;;;;5053298;28;19923;-59
2023/09/12 10:27:33;;;;;;;;;;;23.60;93.40;;;;;;5054685;28;20408;-59
2023/09/12 10:29:59;;;;;;;;;;;23.70;93.40;;;;;;5055179;28;19915;-59
2023/09/12 10:32:27;;;;;;;;;;;23.60;93.40;;;;;;5056894;28;19912;-59
2023/09/12 10:34:52;;;;;;;;;;;23.60;93.40;;;;;;5034698;28;19905;-58
2023/09/12 10:37:19;;;;;;;;;;;23.60;93.40;;;;;;5043713;28;19996;-58
2023/09/12 10:39:45;;;;;;;;;;;23.60;93.40;;;;;;5053112;28;19909;-53
2023/09/12 10:42:12;;;;;;;;;;;23.60;93.40;;;;;;5055202;28;19995;-57
2023/09/12 10:44:38;;;;;;;;;;;23.60;93.40;;;;;;5053773;28;19920;-59
2023/09/12 10:47:04;;;;;;;;;;;23.60;93.30;;;;;;5052609;28;19948;-55
2023/09/12 10:49:29;;;;;;;;;;;23.60;93.10;;;;;;5065885;28;20279;-57
2023/09/12 10:51:55;;;;;;;;;;;23.60;92.90;;;;;;5048137;28;19920;-58
2023/09/12 10:54:25;;;;;;;;;;;23.60;92.70;;;;;;5052832;28;20316;-58
2023/09/12 10:57:03;;;;;;;;;;;23.60;92.70;;;;;;5050865;28;19916;-59
2023/09/12 10:59:31;;;;;;;;;;;23.60;92.70;;;;;;5033263;28;19913;-57
2023/09/12 11:02:16;;;;;;;;;;;23.60;92.60;;;;;;5034160;28;20399;-59
2023/09/12 11:04:42;;;;;;;;;;;23.60;92.60;;;;;;5034666;28;19940;-59
2023/09/12 11:07:36;;;;;;;;;;;23.60;92.50;;;;;;5034492;28;20353;-60
2023/09/12 11:10:31;;;;;;;;;;;23.60;92.60;;;;;;5021333;28;19955;-60
2023/09/12 11:12:56;;;;;;;;;;;23.60;92.60;;;;;;5032573;28;19932;-60
2023/09/12 11:15:23;;;;;;;;;;;23.60;92.70;;;;;;5034588;28;20363;-60
2023/09/12 11:17:49;;;;;;;;;;;23.60;92.70;;;;;;5034251;28;20447;-60
2023/09/12 11:20:16;;;;;;;;;;;23.60;92.70;;;;;;5034561;28;19920;-57
2023/09/12 11:22:42;;;;;;;;;;;23.60;92.70;;;;;;5016457;28;19913;-60
2023/09/12 11:25:18;;;;;;;;;;;23.60;92.70;;;;;;5038491;28;19971;-59
2023/09/12 11:27:46;;;;;;;;;;;23.60;92.80;;;;;;5043427;28;20123;-51
2023/09/12 11:30:12;;;;;;;;;;;23.60;92.80;;;;;;5050330;28;20410;-58
2023/09/12 11:32:38;;;;;;;;;;;23.60;92.80;;;;;;5052828;28;19909;-59
2023/09/12 11:35:07;;;;;;;;;;;23.60;92.80;;;;;;5051634;28;20363;-58
2023/09/12 11:37:33;;;;;;;;;;;23.60;92.80;;;;;;5035156;28;19919;-59
2023/09/12 11:39:59;;;;;;;;;;;23.60;92.90;;;;;;5057823;28;20291;-58
2023/09/12 11:42:27;;;;;;;;;;;23.60;92.90;;;;;;5050886;28;19947;-59
2023/09/12 11:44:53;;;;;;;;;;;23.60;92.90;;;;;;5054005;28;20299;-60
2023/09/12 11:47:18;;;;;;;;;;;23.60;92.90;;;;;;5052313;28;19928;-57
2023/09/12 11:49:44;;;;;;;;;;;23.60;92.90;;;;;;5036054;28;19913;-57
2023/09/12 11:52:12;;;;;;;;;;;23.60;92.90;;;;;;5052566;28;19940;-61
2023/09/12 11:54:38;;;;;;;;;;;23.60;93.30;;;;;;5063134;28;19920;-59
2023/09/12 11:57:04;;;;;;;;;;;23.60;93.10;;;;;;5062660;28;19920;-60
2023/09/12 11:59:29;;;;;;;;;;;23.60;93.10;;;;;;5055606;28;19908;-60
2023/09/12 12:01:55;;;;;;;;;;;23.60;93.30;;;;;;5073966;28;19908;-59
2023/09/12 12:04:22;;;;;;;;;;;23.60;93.10;;;;;;5073892;28;20367;-59
2023/09/12 12:06:47;;;;;;;;;;;23.60;93.10;;;;;;5073854;28;19966;-59
2023/09/12 12:09:14;;;;;;;;;;;23.60;93.10;;;;;;5073424;28;19909;-59
2023/09/12 12:11:41;;;;;;;;;;;23.60;93.10;;;;;;5073840;28;19958;-60
2023/09/12 12:14:16;;;;;;;;;;;23.60;93.10;;;;;;5073803;28;19998;-59
2023/09/12 12:16:42;;;;;;;;;;;23.60;93.10;;;;;;5073736;28;19915;-59
2023/09/12 12:19:08;;;;;;;;;;;23.60;93.20;;;;;;5073662;28;19908;-59
2023/09/12 12:21:34;;;;;;;;;;;23.60;93.10;;;;;;5073739;28;19962;-59
2023/09/12 12:24:00;;;;;;;;;;;23.60;93.10;;;;;;5073514;28;19916;-59
2023/09/12 12:26:26;;;;;;;;;;;23.60;93.10;;;;;;5055280;28;20063;-60
2023/09/12 12:28:52;;;;;;;;;;;23.60;93.20;;;;;;5073470;28;19909;-60
2023/09/12 12:31:18;;;;;;;;;;;23.60;93.20;;;;;;5073560;28;19915;-59
2023/09/12 12:33:49;;;;;;;;;;;23.60;93.20;;;;;;5073295;28;19915;-58
2023/09/12 12:36:14;;;;;;;;;;;23.60;93.20;;;;;;5073179;28;20383;-58
2023/09/12 12:38:43;;;;;;;;;;;23.60;93.20;;;;;;5073941;28;19913;-59
2023/09/12 12:41:09;;;;;;;;;;;23.60;93.20;;;;;;5077584;28;20011;-60
2023/09/12 12:43:34;;;;;;;;;;;23.60;93.20;;;;;;5076849;28;19967;-60
2023/09/12 12:46:00;;;;;;;;;;;23.60;93.20;;;;;;5076846;28;19969;-60
2023/09/12 12:48:29;;;;;;;;;;;23.60;93.20;;;;;;5076988;28;19925;-61
2023/09/12 12:50:55;;;;;;;;;;;23.60;93.20;;;;;;5076809;28;20354;-60
2023/09/12 12:53:36;;;;;;;;;;;23.60;93.20;;;;;;5076946;28;19947;-60
2023/09/12 12:56:02;;;;;;;;;;;23.60;93.20;;;;;;5076580;28;19908;-60
2023/09/12 12:58:27;;;;;;;;;;;23.60;93.20;;;;;;5044507;28;20018;-59
2023/09/12 13:00:53;;;;;;;;;;;23.60;93.20;;;;;;5062079;28;19952;-61
2023/09/12 13:03:18;;;;;;;;;;;23.60;93.20;;;;;;5062288;28;19920;-51
2023/09/12 13:05:44;;;;;;;;;;;23.60;93.20;;;;;;5057774;28;19930;-60
2023/09/12 13:08:10;;;;;;;;;;;23.60;93.20;;;;;;5059073;28;20317;-60
2023/09/12 13:10:36;;;;;;;;;;;23.60;93.20;;;;;;5054885;28;20004;-60
2023/09/12 13:13:03;;;;;;;;;;;23.60;93.20;;;;;;5067314;28;20295;-55
2023/09/12 13:15:29;;;;;;;;;;;23.60;93.20;;;;;;5066759;28;19919;-52
2023/09/12 13:17:54;;;;;;;;;;;23.60;93.20;;;;;;5056779;28;19908;-54
2023/09/12 13:20:20;;;;;;;;;;;23.60;93.40;;;;;;5055426;28;19913;-52
2023/09/12 13:22:46;;;;;;;;;;;23.60;93.20;;;;;;5055271;28;19944;-54
2023/09/12 13:25:11;;;;;;;;;;;23.60;93.20;;;;;;5055275;28;19924;-55
2023/09/12 13:27:36;;;;;;;;;;;23.60;93.30;;;;;;5037639;28;19924;-56
2023/09/12 13:30:04;;;;;;;;;;;23.60;93.30;;;;;;5056463;28;20000;-55
2023/09/12 13:32:29;;;;;;;;;;;23.60;93.30;;;;;;5054553;28;19922;-55
2023/09/12 13:34:55;;;;;;;;;;;23.60;93.30;;;;;;5057451;28;20015;-58
2023/09/12 13:37:21;;;;;;;;;;;23.60;93.40;;;;;;5056227;28;20340;-57
2023/09/12 13:39:49;;;;;;;;;;;23.60;93.40;;;;;;5058749;28;19961;-61
2023/09/12 13:42:19;;;;;;;;;;;23.60;93.40;;;;;;5054869;28;19913;-59
2023/09/12 13:44:45;;;;;;;;;;;23.60;93.40;;;;;;5054953;28;19931;-60
2023/09/12 13:47:10;;;;;;;;;;;23.60;93.40;;;;;;5012575;28;20361;-60
2023/09/12 13:49:36;;;;;;;;;;;23.60;93.40;;;;;;5054635;28;20364;-57
2023/09/12 13:52:02;;;;;;;;;;;23.70;93.50;;;;;;5055116;28;19999;-59
2023/09/12 13:54:27;;;;;;;;;;;23.60;93.50;;;;;;5061646;28;19917;-59
2023/09/12 13:56:53;;;;;;;;;;;23.70;93.60;;;;;;5069460;28;19966;-60
2023/09/12 13:59:20;;;;;;;;;;;23.70;93.60;;;;;;5068929;28;19913;-49
2023/09/12 14:01:46;;;;;;;;;;;23.70;93.60;;;;;;5053541;28;19913;-52
2023/09/12 14:04:13;;;;;;;;;;;23.60;93.50;;;;;;5055320;28;19924;-54
2023/09/12 14:06:38;;;;;;;;;;;23.60;93.60;;;;;;5055857;28;19917;-54
2023/09/12 14:09:04;;;;;;;;;;;23.70;93.60;;;;;;5055418;28;19920;-54
2023/09/12 14:11:30;;;;;;;;;;;23.70;93.80;;;;;;5055549;28;19953;-53